Impacts METAR Board
IDs:

KGRK - Killeen-Ft Hood Rgnl, TX, US

Updated at: 2200 UTC 29 May 2020
Potential Impact None Slight Moderate High
Time 29/10Z 29/11Z 29/12Z 29/13Z 29/14Z 29/15Z 29/16Z 29/17Z 29/18Z 29/19Z 29/20Z 29/21Z 29/22Z
Temp68 65 65 68 71 74 76 78 81 83 83 85 85
Dewpt64 63 62 64 64 64 63 63 61 58 57 55 54
Altim30.07 30.08 30.10 30.13 30.15 30.14 30.13 30.14 30.13 30.14 30.13 30.13 30.11
VIS10 7 9 10 10 10 10 10 10 10 10 10 10
CIG-- -- -- -- -- -- -- -- -- -- -- -- --
CoverCLRCLRCLRCLRCLRCLRCLRCLRFEWCLRCLRCLRCLR
FltCatVFRVFRVFRVFRVFRVFRVFRVFRVFRVFRVFRVFRVFR
WX--------------------------
WDir3403603503503605050605040403030
WSpd5 8 8 8 10 8 12 8 11 11 12 10 11
WGst-- -- -- -- -- -- -- 18 -- 18 -- 20 --
Raw hourly METARs
KGRK 290958Z AUTO 34005KT 10SM CLR 20/18 A3007 RMK AO2 SLP174 T02000175
KGRK 291058Z AUTO 36008KT 7SM CLR 19/17 A3008 RMK AO2 SLP178 T01860171
KGRK 291158Z AUTO 35008KT 9SM CLR 18/17 A3010 RMK AO2 SLP186 70004 T01820168 10215 20181 52017
KGRK 291258Z AUTO 35008KT 10SM CLR 20/18 A3013 RMK AO2 SLP196 T02010176
KGRK 291358Z AUTO 36010KT 10SM CLR 22/18 A3015 RMK AO2 LTG DSNT S SLP202 T02150175
KGRK 291458Z AUTO 05008KT 10SM CLR 23/18 A3014 RMK AO2 SLP199 T02320176 51014
KGRK 291558Z AUTO 05012KT 10SM CLR 24/17 A3013 RMK AO2 SLP195 T02440172
KGRK 291658Z AUTO 06008G18KT 10SM CLR 26/17 A3014 RMK AO2 SLP198 T02550172
KGRK 291758Z AUTO 05011KT 10SM FEW041 27/16 A3013 RMK AO2 SLP194 T02700160 10270 20183 55003
KGRK 291858Z AUTO 04011G18KT 10SM CLR 28/14 A3014 RMK AO2 SLP198 T02820144
KGRK 291958Z AUTO 04012KT 10SM CLR 29/14 A3013 RMK AO2 SLP194 T02860140
KGRK 292058Z AUTO 03010G20KT 10SM CLR 29/13 A3013 RMK AO2 SLP194 T02920125 58002
KGRK 292158Z AUTO 03011KT 10SM CLR 29/12 A3011 RMK AO2 SLP187 T02920123